Anacostia, District of Columbia
Current Conditions -  °F | °C
As of 4:52 AM on Sunday 26 Oct 2014 (Local Time) from KDCA Reporting Station
Few Clouds Few Clouds  
Wind Chill: 66°   Ceiling: Unl
Heat Index: 66°   Visibility: 10mi
Dew Point: 40°   Wind: 10mph
Humidity: 38%   Direction: 300°WNW
Pressure: 29.72"   Gusts: 17mph
Location:  38.8618°N, 77.0026°W
Report Text: KDCA 260852Z 30009G15KT 10SM FEW060 19/04 A2972 RMK AO2 SLP063 T01890044 $
Loading
Personal Weather Stations






























Interactive Weather Map
Tropical Storm Tracking
New forecast layout! Learn more

10-Day Weather Forecast

Advertisements
Track Severe Weather on mobile